Time;durP1;ratioP1;P1;durP2;ratioP2;P2;SDS_P1;SDS_P2;PMS_P1;PMS_P2;Temp;Humidity;BMP_temperature;BMP_pressure;BME280_temperature;BME280_humidity;BME280_pressure;Samples;Min_cycle;Max_cycle;Signal;HPM_P1;HPM_P2
2023/02/16 00:01:49;;;;;;;84.78;46.13;;;8.20;99.90;;;;;;4653176;30;20208;-77
2023/02/16 00:04:21;;;;;;;81.40;45.75;;;8.20;99.90;;;;;;4652989;30;20192;-77
2023/02/16 00:06:48;;;;;;;86.10;48.25;;;8.20;99.90;;;;;;4653785;30;20317;-76
2023/02/16 00:09:14;;;;;;;85.55;46.05;;;8.20;99.90;;;;;;4651440;30;20745;-77
2023/02/16 00:14:26;;;;;;;91.07;46.60;;;8.10;99.90;;;;;;4655457;30;20280;-75
2023/02/16 00:16:53;;;;;;;81.03;44.92;;;8.10;99.90;;;;;;4653230;30;20197;-77
2023/02/16 00:19:48;;;;;;;88.75;47.78;;;8.10;99.90;;;;;;4650146;30;20205;-80
2023/02/16 00:22:14;;;;;;;78.32;44.83;;;8.00;99.90;;;;;;4640376;30;20205;-77
2023/02/16 00:24:40;;;;;;;83.47;46.28;;;8.10;99.90;;;;;;4653076;30;20267;-80
2023/02/16 00:27:17;;;;;;;92.28;48.13;;;8.10;99.90;;;;;;4653331;30;20232;-77
2023/02/16 00:29:43;;;;;;;85.70;47.67;;;8.10;99.90;;;;;;4637646;30;20654;-75
2023/02/16 00:32:11;;;;;;;79.38;45.45;;;8.00;99.90;;;;;;4648233;30;20225;-75
2023/02/16 00:34:40;;;;;;;82.32;46.03;;;8.00;99.90;;;;;;4634449;30;20272;-81
2023/02/16 00:37:08;;;;;;;84.35;46.83;;;8.00;99.90;;;;;;4652714;30;20210;-78
2023/02/16 00:39:35;;;;;;;87.20;46.28;;;8.00;99.90;;;;;;4642925;30;20648;-79
2023/02/16 00:42:05;;;;;;;87.80;47.47;;;7.90;99.90;;;;;;4635207;30;20300;-79
2023/02/16 00:44:45;;;;;;;91.18;46.65;;;7.90;99.90;;;;;;4652825;30;20667;-80
2023/02/16 00:47:37;;;;;;;90.25;46.35;;;7.90;99.90;;;;;;4656379;30;20247;-77
2023/02/16 00:50:22;;;;;;;89.38;47.33;;;7.90;99.90;;;;;;4637822;30;20197;-81
2023/02/16 00:52:48;;;;;;;85.70;45.70;;;7.90;99.90;;;;;;4619221;30;20719;-76
2023/02/16 00:55:22;;;;;;;81.40;47.10;;;7.90;99.90;;;;;;4651812;30;20288;-77
2023/02/16 00:57:55;;;;;;;82.78;46.70;;;7.80;99.90;;;;;;4654637;30;20200;-77
2023/02/16 01:00:32;;;;;;;82.60;46.33;;;7.80;99.90;;;;;;4649831;30;20363;-76
2023/02/16 01:03:00;;;;;;;88.43;45.40;;;7.80;99.90;;;;;;4647426;30;20250;-77
2023/02/16 01:05:26;;;;;;;96.57;48.45;;;7.80;99.90;;;;;;4651201;30;20189;-77
2023/02/16 01:13:25;;;;;;;83.18;47.38;;;7.70;99.90;;;;;;4648629;30;20245;-80
2023/02/16 01:15:51;;;;;;;90.13;47.05;;;7.70;99.90;;;;;;4651227;30;20197;-77
2023/02/16 01:18:18;;;;;;;86.90;47.10;;;7.70;99.90;;;;;;4629302;30;20232;-77
2023/02/16 01:20:44;;;;;;;85.32;47.47;;;7.70;99.90;;;;;;4650532;30;20209;-78
2023/02/16 01:23:10;;;;;;;87.20;48.28;;;7.70;99.90;;;;;;4648797;30;20205;-79
2023/02/16 01:25:41;;;;;;;89.95;49.63;;;7.70;99.90;;;;;;4651826;30;20761;-78
2023/02/16 01:28:22;;;;;;;85.20;48.72;;;7.60;99.90;;;;;;4651993;30;20210;-76
2023/02/16 01:30:49;;;;;;;88.50;48.45;;;7.60;99.90;;;;;;4649865;30;20287;-81
2023/02/16 01:33:14;;;;;;;90.32;47.75;;;7.60;99.90;;;;;;4649197;30;20202;-77
2023/02/16 01:35:41;;;;;;;88.00;47.05;;;7.60;99.90;;;;;;4628138;30;20264;-78
2023/02/16 01:38:15;;;;;;;88.70;47.05;;;7.60;99.90;;;;;;4652439;30;20594;-76
2023/02/16 01:41:01;;;;;;;80.43;46.15;;;7.60;99.90;;;;;;4652051;30;20208;-79
2023/02/16 01:43:44;;;;;;;82.97;48.17;;;7.60;99.90;;;;;;4649457;30;20675;-77
2023/02/16 01:46:16;;;;;;;85.95;47.80;;;7.60;99.90;;;;;;4644035;30;20198;-79
2023/02/16 01:48:42;;;;;;;93.00;46.55;;;7.50;99.90;;;;;;4653563;30;20192;-76
2023/02/16 01:51:20;;;;;;;86.55;46.83;;;7.50;99.90;;;;;;4637759;30;20228;-77
2023/02/16 01:53:54;;;;;;;84.95;47.67;;;7.50;99.90;;;;;;4651079;30;20307;-76
2023/02/16 01:56:38;;;;;;;89.18;47.55;;;7.50;99.90;;;;;;4642687;30;20205;-78
2023/02/16 01:59:19;;;;;;;86.80;46.90;;;7.50;99.90;;;;;;4644474;30;20199;-79
2023/02/16 02:01:54;;;;;;;84.15;46.40;;;7.50;99.90;;;;;;4651980;30;20223;-77
2023/02/16 02:07:20;;;;;;;92.03;47.58;;;7.40;99.90;;;;;;4636378;30;20205;-76
2023/02/16 02:10:12;;;;;;;83.97;46.20;;;7.40;99.90;;;;;;4636761;30;20193;-76
2023/02/16 02:12:51;;;;;;;86.75;46.92;;;7.40;99.90;;;;;;4625594;30;20306;-77
2023/02/16 02:15:21;;;;;;;91.90;47.88;;;7.40;99.90;;;;;;4626274;30;20260;-78
2023/02/16 02:17:47;;;;;;;83.72;46.42;;;7.30;99.90;;;;;;4636103;30;20189;-75
2023/02/16 02:20:22;;;;;;;89.75;48.30;;;7.30;99.90;;;;;;4634614;30;20217;-76
2023/02/16 02:23:32;;;;;;;90.47;47.83;;;7.30;99.90;;;;;;4635130;30;20193;-77
2023/02/16 02:26:11;;;;;;;84.43;47.05;;;7.30;99.90;;;;;;4628730;30;20574;-79
2023/02/16 02:28:49;;;;;;;85.10;46.15;;;7.30;99.90;;;;;;4629712;30;20315;-79
2023/02/16 02:31:16;;;;;;;84.22;45.20;;;7.20;99.90;;;;;;4626019;30;20217;-80
2023/02/16 02:33:49;;;;;;;83.40;48.03;;;7.30;99.90;;;;;;4634696;30;20286;-76
2023/02/16 02:36:50;;;;;;;86.05;47.25;;;7.20;99.90;;;;;;4627901;30;20193;-78
2023/02/16 02:39:34;;;;;;;82.85;45.63;;;7.20;99.90;;;;;;4639732;30;20281;-76
2023/02/16 02:42:33;;;;;;;87.18;47.03;;;7.20;99.90;;;;;;4636008;30;20252;-76
2023/02/16 02:45:30;;;;;;;85.82;46.22;;;7.10;99.90;;;;;;4595274;30;20216;-82
2023/02/16 02:47:57;;;;;;;93.93;47.65;;;7.10;99.90;;;;;;4639945;30;21269;-79
2023/02/16 02:50:23;;;;;;;85.05;46.90;;;7.10;99.90;;;;;;4637135;30;20204;-78
2023/02/16 02:52:49;;;;;;;88.65;46.80;;;7.10;99.90;;;;;;4636895;30;20214;-81
2023/02/16 03:00:50;;;;;;;88.43;48.00;;;7.10;99.90;;;;;;4635206;30;20202;-80
2023/02/16 03:03:29;;;;;;;86.30;47.88;;;7.10;99.90;;;;;;4639241;30;20204;-76
2023/02/16 03:06:05;;;;;;;91.43;48.65;;;7.00;99.90;;;;;;4638511;30;20557;-80
2023/02/16 03:08:34;;;;;;;76.57;43.47;;;7.00;99.90;;;;;;4639590;30;20254;-78
2023/02/16 03:14:01;;;;;;;80.05;46.58;;;7.10;99.90;;;;;;4640629;30;20209;-76
2023/02/16 03:16:35;;;;;;;84.10;45.22;;;7.00;99.90;;;;;;4638999;30;20201;-76
2023/02/16 03:30:10;;;;;;;82.72;45.55;;;7.10;99.90;;;;;;4637791;30;20234;-78
2023/02/16 03:32:37;;;;;;;86.38;48.30;;;7.10;99.90;;;;;;4638845;30;20465;-80
2023/02/16 03:35:04;;;;;;;87.05;47.63;;;7.10;99.90;;;;;;4638710;30;20198;-77
2023/02/16 03:37:30;;;;;;;84.63;46.83;;;7.20;99.90;;;;;;4637717;30;20212;-81
2023/02/16 03:42:50;;;;;;;81.90;48.35;;;7.20;99.90;;;;;;4635557;30;20226;-78
2023/02/16 03:45:20;;;;;;;82.65;45.70;;;7.20;99.90;;;;;;4631743;30;20735;-76
2023/02/16 03:47:46;;;;;;;83.13;46.72;;;7.20;99.90;;;;;;4637166;30;20206;-75
2023/02/16 03:50:11;;;;;;;83.30;46.72;;;7.20;99.90;;;;;;4637470;30;20204;-77
2023/02/16 03:52:37;;;;;;;84.80;46.78;;;7.20;99.90;;;;;;4635894;30;20229;-75
2023/02/16 03:55:03;;;;;;;85.82;46.55;;;7.20;99.90;;;;;;4635107;30;20207;-79
2023/02/16 03:57:29;;;;;;;83.30;47.80;;;7.20;99.90;;;;;;4636830;30;20213;-80
2023/02/16 03:59:54;;;;;;;79.25;46.80;;;7.30;99.90;;;;;;4637049;30;20210;-76
2023/02/16 04:02:20;;;;;;;82.93;47.38;;;7.30;99.90;;;;;;4631076;30;20205;-78
2023/02/16 04:04:46;;;;;;;84.43;46.85;;;7.30;99.90;;;;;;4633324;30;20228;-79
2023/02/16 04:07:12;;;;;;;81.68;46.58;;;7.30;99.90;;;;;;4636522;30;20595;-76
2023/02/16 04:09:38;;;;;;;88.85;49.00;;;7.30;99.90;;;;;;4636339;30;20256;-78
2023/02/16 04:14:49;;;;;;;81.90;46.00;;;7.30;99.90;;;;;;4639147;30;20221;-79
2023/02/16 04:17:15;;;;;;;85.03;48.28;;;7.30;99.90;;;;;;4654222;30;21496;-81
2023/02/16 04:19:40;;;;;;;84.35;47.58;;;7.40;99.90;;;;;;4638688;30;20732;-80
2023/02/16 04:22:06;;;;;;;79.72;47.20;;;7.40;99.90;;;;;;4639931;30;20209;-75
2023/02/16 04:24:32;;;;;;;86.72;47.80;;;7.40;99.90;;;;;;4650974;30;20252;-79
2023/02/16 04:26:58;;;;;;;80.18;46.70;;;7.40;99.90;;;;;;4650037;30;20217;-81
2023/02/16 04:29:23;;;;;;;82.55;46.80;;;7.40;99.90;;;;;;4654723;30;20924;-77
2023/02/16 04:31:49;;;;;;;87.72;46.58;;;7.40;99.90;;;;;;4653647;30;20552;-76
2023/02/16 04:34:15;;;;;;;84.63;46.78;;;7.40;99.90;;;;;;4652423;30;20239;-76
2023/02/16 04:36:41;;;;;;;83.75;46.83;;;7.50;99.90;;;;;;4653272;30;20217;-78
2023/02/16 04:39:06;;;;;;;79.10;45.83;;;7.50;99.90;;;;;;4653944;30;20197;-77
2023/02/16 04:41:32;;;;;;;86.40;47.53;;;7.50;99.90;;;;;;4652881;30;20208;-78
2023/02/16 04:43:58;;;;;;;78.90;45.85;;;7.50;99.90;;;;;;4652899;30;20232;-80
2023/02/16 04:46:24;;;;;;;84.03;47.47;;;7.50;99.90;;;;;;4652436;30;20643;-78
2023/02/16 04:48:49;;;;;;;88.00;48.83;;;7.50;99.90;;;;;;4650422;30;20636;-75
2023/02/16 04:51:15;;;;;;;87.43;47.97;;;7.50;99.90;;;;;;4652849;30;20654;-75
2023/02/16 04:53:41;;;;;;;86.30;46.72;;;7.50;99.90;;;;;;4651772;30;20212;-76
2023/02/16 04:56:11;;;;;;;83.13;46.63;;;7.50;99.90;;;;;;4651831;30;21479;-79
2023/02/16 04:58:36;;;;;;;86.38;47.50;;;7.60;99.90;;;;;;4653184;30;20347;-80
2023/02/16 05:01:02;;;;;;;83.00;47.05;;;7.50;99.90;;;;;;4652290;30;20217;-76
2023/02/16 05:03:28;;;;;;;79.85;46.47;;;7.60;99.90;;;;;;4655320;30;20265;-76
2023/02/16 05:05:54;;;;;;;83.15;46.00;;;7.60;99.90;;;;;;4652987;30;20301;-76
2023/02/16 05:08:20;;;;;;;82.47;47.65;;;7.50;99.90;;;;;;4648993;30;20197;-77
2023/02/16 05:14:40;;;;;;;86.03;46.70;;;7.60;99.90;;;;;;4652092;30;20263;-78
2023/02/16 05:16:15;;;;;;;89.07;47.13;;;7.60;99.90;;;;;;4628978;30;20844;-79
2023/02/16 05:18:41;;;;;;;83.57;48.15;;;7.60;99.90;;;;;;4652618;30;20205;-79
2023/02/16 05:23:51;;;;;;;83.13;46.92;;;7.60;99.90;;;;;;4652436;30;20773;-81
2023/02/16 05:26:16;;;;;;;84.30;47.33;;;7.60;99.90;;;;;;4652109;30;20205;-79
2023/02/16 05:28:42;;;;;;;83.13;48.15;;;7.60;99.90;;;;;;4622060;30;20209;-76
2023/02/16 05:31:08;;;;;;;81.57;47.65;;;7.60;99.90;;;;;;4648679;30;20777;-82
2023/02/16 05:33:33;;;;;;;86.97;48.40;;;7.60;99.90;;;;;;4649780;30;20654;-76
2023/02/16 05:35:59;;;;;;;81.35;46.42;;;7.60;99.90;;;;;;4650281;30;20220;-78
2023/02/16 05:38:25;;;;;;;85.57;47.72;;;7.60;99.90;;;;;;4652183;30;20244;-81
2023/02/16 05:40:51;;;;;;;88.20;48.25;;;7.70;99.90;;;;;;4652224;30;20213;-76
2023/02/16 05:43:18;;;;;;;88.55;48.45;;;7.70;99.90;;;;;;4634256;30;20205;-76
2023/02/16 05:45:43;;;;;;;86.03;47.75;;;7.70;99.90;;;;;;4649625;30;20231;-76
2023/02/16 05:48:09;;;;;;;88.15;47.38;;;7.70;99.90;;;;;;4649858;30;21192;-78
2023/02/16 05:50:35;;;;;;;82.25;47.92;;;7.70;99.90;;;;;;4650241;30;20206;-79
2023/02/16 05:53:01;;;;;;;81.18;46.65;;;7.70;99.90;;;;;;4646894;30;20758;-78
2023/02/16 05:55:26;;;;;;;81.55;47.22;;;7.70;99.90;;;;;;4653965;30;20281;-80
2023/02/16 05:57:52;;;;;;;85.00;47.40;;;7.70;99.90;;;;;;4653318;30;20197;-77
2023/02/16 06:00:18;;;;;;;81.90;47.72;;;7.70;99.90;;;;;;4651655;30;20201;-76
2023/02/16 06:02:44;;;;;;;81.75;48.03;;;7.70;99.90;;;;;;4655123;30;20309;-78
2023/02/16 06:05:10;;;;;;;85.97;48.22;;;7.70;99.90;;;;;;4653244;30;20313;-76
2023/02/16 06:07:35;;;;;;;89.95;47.08;;;7.70;99.90;;;;;;4636745;30;20203;-75
2023/02/16 06:10:02;;;;;;;85.20;48.05;;;7.70;99.90;;;;;;4636316;30;20590;-78
2023/02/16 06:12:27;;;;;;;87.70;49.53;;;7.70;99.90;;;;;;4653094;30;20268;-76
2023/02/16 06:14:54;;;;;;;81.72;48.38;;;7.70;99.90;;;;;;4653656;30;20209;-78
2023/02/16 06:17:20;;;;;;;86.38;48.65;;;7.70;99.90;;;;;;4654124;30;20260;-75
2023/02/16 06:19:46;;;;;;;83.30;48.20;;;7.70;99.90;;;;;;4653462;30;20193;-79
2023/02/16 06:22:12;;;;;;;88.68;48.85;;;7.80;99.90;;;;;;4653946;30;20212;-74
2023/02/16 06:24:37;;;;;;;87.60;48.85;;;7.70;99.90;;;;;;4655629;30;20295;-81
2023/02/16 06:27:03;;;;;;;89.38;48.75;;;7.70;99.90;;;;;;4634967;30;20197;-75
2023/02/16 06:29:29;;;;;;;85.22;50.60;;;7.70;99.90;;;;;;4657558;30;20201;-75
2023/02/16 06:31:55;;;;;;;84.75;48.85;;;7.70;99.90;;;;;;4652343;30;20609;-79
2023/02/16 06:34:21;;;;;;;86.05;50.25;;;7.70;99.90;;;;;;4656631;30;20233;-76
2023/02/16 06:36:46;;;;;;;85.55;50.13;;;7.70;99.90;;;;;;4656194;30;20768;-76
2023/02/16 06:39:12;;;;;;;86.82;49.40;;;7.70;99.90;;;;;;4657111;30;21796;-79
2023/02/16 06:41:39;;;;;;;84.55;49.58;;;7.70;99.90;;;;;;4650434;30;20257;-78
2023/02/16 06:44:13;;;;;;;87.53;49.85;;;7.70;99.90;;;;;;4639849;30;20902;-79
2023/02/16 06:46:43;;;;;;;82.95;49.20;;;7.70;99.90;;;;;;4654469;30;20206;-78
2023/02/16 06:49:19;;;;;;;86.05;50.22;;;7.70;99.90;;;;;;4655337;30;20195;-77
2023/02/16 06:51:46;;;;;;;83.90;48.65;;;7.70;99.90;;;;;;4655441;30;20216;-75
2023/02/16 06:54:12;;;;;;;87.22;50.75;;;7.70;99.90;;;;;;4655602;30;20311;-78
2023/02/16 06:56:39;;;;;;;84.13;48.28;;;7.70;99.90;;;;;;4656234;30;20197;-82
2023/02/16 06:59:05;;;;;;;90.22;49.97;;;7.80;99.90;;;;;;4642515;30;20780;-77
2023/02/16 07:01:31;;;;;;;89.72;49.70;;;7.80;99.90;;;;;;4654767;30;20208;-75
2023/02/16 07:03:57;;;;;;;86.00;50.28;;;7.80;99.90;;;;;;4642885;30;20755;-80
2023/02/16 07:06:24;;;;;;;86.05;49.40;;;7.80;99.90;;;;;;4655324;30;20298;-77
2023/02/16 07:08:51;;;;;;;85.35;48.78;;;7.70;99.90;;;;;;4651226;30;20217;-77
2023/02/16 07:11:18;;;;;;;88.80;50.13;;;7.80;99.90;;;;;;4651494;30;20284;-78
2023/02/16 07:13:44;;;;;;;89.57;50.80;;;7.80;99.90;;;;;;4656250;30;20925;-81
2023/02/16 07:16:11;;;;;;;89.45;51.13;;;7.80;99.90;;;;;;4633019;30;20201;-80
2023/02/16 07:18:37;;;;;;;91.78;51.70;;;7.80;99.90;;;;;;4656135;30;20237;-80
2023/02/16 07:21:03;;;;;;;94.70;50.20;;;7.80;99.90;;;;;;4653203;30;21290;-81
2023/02/16 07:23:29;;;;;;;89.43;50.95;;;7.80;99.90;;;;;;4653525;30;20725;-77
2023/02/16 07:25:55;;;;;;;89.65;52.35;;;7.80;99.90;;;;;;4625862;30;20291;-78
2023/02/16 07:28:20;;;;;;;94.05;52.05;;;7.90;99.90;;;;;;4654658;30;20201;-75
2023/02/16 07:30:46;;;;;;;85.55;50.70;;;7.80;99.90;;;;;;4652583;30;20688;-79
2023/02/16 07:33:14;;;;;;;90.78;51.78;;;7.90;99.90;;;;;;4637321;30;20256;-78
2023/02/16 07:35:40;;;;;;;87.32;51.63;;;7.90;99.90;;;;;;4652976;30;20208;-75
2023/02/16 07:38:06;;;;;;;89.60;52.67;;;7.80;99.90;;;;;;4654047;30;20197;-79
2023/02/16 07:40:32;;;;;;;93.22;51.55;;;7.90;99.90;;;;;;4655098;30;20974;-74
2023/02/16 07:43:00;;;;;;;94.28;52.10;;;7.90;99.90;;;;;;4652897;30;20205;-78
2023/02/16 07:45:26;;;;;;;91.43;50.25;;;8.00;99.90;;;;;;4650194;30;20720;-75
2023/02/16 07:47:52;;;;;;;92.25;51.15;;;7.90;99.90;;;;;;4652614;30;20221;-74
2023/02/16 07:50:18;;;;;;;91.32;52.15;;;7.90;99.90;;;;;;4652569;30;20232;-74
2023/02/16 07:52:43;;;;;;;86.43;50.72;;;8.00;99.90;;;;;;4649731;30;20310;-79
2023/02/16 07:55:10;;;;;;;94.00;51.53;;;8.00;99.90;;;;;;4639702;30;20326;-74
2023/02/16 07:57:37;;;;;;;92.97;50.25;;;8.00;99.90;;;;;;4654082;30;20985;-76
2023/02/16 08:00:04;;;;;;;88.18;51.20;;;8.00;99.90;;;;;;4653357;30;20263;-77
2023/02/16 08:02:37;;;;;;;91.05;52.20;;;8.00;99.90;;;;;;4652593;30;20641;-78
2023/02/16 08:05:04;;;;;;;92.63;52.45;;;8.00;99.90;;;;;;4651646;30;20209;-76
2023/02/16 08:07:30;;;;;;;88.38;50.78;;;8.10;99.90;;;;;;4635129;30;20225;-79
2023/02/16 08:09:55;;;;;;;97.78;52.15;;;8.10;99.90;;;;;;4655473;30;20459;-78
2023/02/16 08:12:22;;;;;;;94.57;52.58;;;8.10;99.90;;;;;;4652787;30;20702;-76
2023/02/16 08:14:49;;;;;;;88.40;51.17;;;8.10;99.90;;;;;;4654102;30;20616;-80
2023/02/16 08:17:15;;;;;;;94.45;53.08;;;8.10;99.90;;;;;;4650486;30;20192;-76
2023/02/16 08:19:41;;;;;;;86.60;50.90;;;8.10;99.90;;;;;;4650518;30;20656;-76
2023/02/16 08:22:07;;;;;;;95.65;53.33;;;8.20;99.90;;;;;;4651024;30;20220;-81
2023/02/16 08:24:33;;;;;;;94.97;52.80;;;8.20;99.90;;;;;;4653560;30;20567;-79
2023/02/16 08:27:02;;;;;;;90.60;50.50;;;8.20;99.90;;;;;;4649673;30;20213;-78
2023/02/16 08:29:29;;;;;;;85.75;50.53;;;8.20;99.90;;;;;;4652803;30;20237;-77
2023/02/16 08:31:55;;;;;;;89.93;51.22;;;8.20;99.90;;;;;;4649196;30;20237;-75
2023/02/16 08:34:22;;;;;;;93.07;52.65;;;8.20;99.90;;;;;;4643564;30;20205;-74
2023/02/16 08:36:55;;;;;;;88.53;51.40;;;8.30;99.90;;;;;;4653430;30;20323;-80
2023/02/16 08:39:23;;;;;;;92.25;51.50;;;8.20;99.90;;;;;;4640646;30;20569;-79
2023/02/16 08:41:49;;;;;;;91.82;52.50;;;8.30;99.90;;;;;;4652594;30;20259;-75
2023/02/16 08:44:17;;;;;;;91.45;51.10;;;8.30;99.90;;;;;;4638926;30;20204;-77
2023/02/16 08:46:45;;;;;;;90.00;51.60;;;8.30;99.90;;;;;;4654560;30;20526;-77
2023/02/16 08:49:11;;;;;;;90.82;52.25;;;8.30;99.90;;;;;;4640117;30;20207;-78
2023/02/16 08:51:41;;;;;;;91.53;51.30;;;8.30;99.90;;;;;;4638973;30;20314;-76
2023/02/16 08:54:08;;;;;;;92.72;50.88;;;8.30;99.90;;;;;;4652314;30;20198;-76
2023/02/16 08:56:34;;;;;;;91.25;51.88;;;8.30;99.90;;;;;;4653077;30;20208;-75
2023/02/16 08:59:01;;;;;;;93.43;50.60;;;8.40;99.90;;;;;;4653284;30;20268;-75
2023/02/16 09:01:27;;;;;;;92.50;50.58;;;8.40;99.90;;;;;;4653935;30;20201;-76
2023/02/16 09:03:53;;;;;;;88.50;51.65;;;8.40;99.90;;;;;;4653850;30;20197;-78
2023/02/16 09:06:21;;;;;;;94.13;51.50;;;8.40;99.90;;;;;;4638501;30;20220;-76
2023/02/16 09:08:55;;;;;;;93.55;49.95;;;8.50;99.90;;;;;;4653442;30;20209;-75
2023/02/16 09:11:22;;;;;;;88.05;51.40;;;8.40;99.90;;;;;;4652734;30;20790;-78
2023/02/16 09:13:48;;;;;;;91.38;50.97;;;8.50;99.90;;;;;;4653080;30;20242;-77
2023/02/16 09:16:17;;;;;;;90.95;51.50;;;8.50;99.90;;;;;;4652572;30;20206;-79
2023/02/16 09:18:44;;;;;;;96.20;51.95;;;8.50;99.90;;;;;;4653545;30;21646;-75
2023/02/16 09:21:14;;;;;;;91.40;52.03;;;8.50;99.90;;;;;;4653906;30;20210;-76
2023/02/16 09:23:43;;;;;;;93.78;51.28;;;8.60;99.90;;;;;;4654067;30;20205;-74
2023/02/16 09:26:09;;;;;;;91.68;50.60;;;8.60;99.90;;;;;;4652617;30;20878;-76
2023/02/16 09:28:39;;;;;;;95.88;51.20;;;8.60;99.90;;;;;;4652094;30;20208;-75
2023/02/16 09:31:11;;;;;;;100.78;51.70;;;8.60;99.90;;;;;;4651524;30;20698;-74
2023/02/16 09:33:38;;;;;;;88.93;49.55;;;8.60;99.90;;;;;;4649963;30;20292;-75
2023/02/16 09:36:06;;;;;;;94.32;52.47;;;8.60;99.90;;;;;;4648525;30;20197;-74
2023/02/16 09:38:32;;;;;;;93.30;51.50;;;8.60;99.90;;;;;;4650536;30;20216;-78
2023/02/16 09:41:03;;;;;;;92.05;50.53;;;8.70;99.90;;;;;;4650912;30;20205;-74
2023/02/16 09:43:44;;;;;;;90.00;50.95;;;8.70;99.90;;;;;;4651216;30;20205;-75
2023/02/16 09:46:12;;;;;;;91.32;50.78;;;8.70;99.90;;;;;;4637975;30;20193;-79
2023/02/16 09:48:43;;;;;;;103.68;52.20;;;8.70;99.90;;;;;;4649534;30;20253;-76
2023/02/16 09:51:22;;;;;;;95.72;51.30;;;8.70;99.90;;;;;;4652961;30;20222;-75
2023/02/16 09:53:59;;;;;;;86.50;49.00;;;8.80;99.90;;;;;;4651698;30;20238;-75
2023/02/16 09:56:28;;;;;;;87.70;50.70;;;8.80;99.90;;;;;;4650317;30;20208;-78
2023/02/16 09:58:57;;;;;;;95.35;50.67;;;8.80;99.90;;;;;;4638429;30;20202;-76
2023/02/16 10:01:53;;;;;;;91.20;50.45;;;8.90;99.90;;;;;;4652004;30;20200;-78
2023/02/16 10:04:34;;;;;;;88.63;49.85;;;8.90;99.90;;;;;;4651285;30;20280;-78
2023/02/16 10:07:05;;;;;;;87.57;49.45;;;9.00;99.90;;;;;;4651872;30;22662;-82
2023/02/16 10:09:32;;;;;;;95.78;52.20;;;9.00;99.90;;;;;;4653232;30;20264;-79
2023/02/16 10:12:08;;;;;;;91.88;51.63;;;9.00;99.90;;;;;;4629323;30;20221;-78
2023/02/16 10:14:40;;;;;;;97.47;51.75;;;9.00;99.90;;;;;;4650740;30;20247;-75
2023/02/16 10:17:31;;;;;;;93.05;50.75;;;9.00;99.90;;;;;;4651302;30;20224;-77
2023/02/16 10:20:04;;;;;;;96.40;51.50;;;9.00;99.90;;;;;;4652174;30;20205;-80
2023/02/16 10:22:37;;;;;;;103.38;52.10;;;9.00;99.90;;;;;;4647469;30;20194;-78
2023/02/16 10:25:17;;;;;;;102.00;52.92;;;9.10;99.90;;;;;;4650658;30;21224;-77
2023/02/16 10:27:48;;;;;;;96.45;52.10;;;9.10;99.90;;;;;;4647882;30;20360;-78
2023/02/16 10:30:19;;;;;;;96.07;52.17;;;9.10;99.90;;;;;;4650832;30;20200;-80
2023/02/16 10:33:02;;;;;;;95.78;52.22;;;9.10;99.90;;;;;;4652141;30;20206;-77
2023/02/16 10:35:45;;;;;;;95.60;52.97;;;9.10;99.90;;;;;;4651625;30;20297;-75
2023/02/16 10:38:26;;;;;;;100.60;52.75;;;9.20;99.90;;;;;;4627811;30;20205;-76
2023/02/16 10:40:58;;;;;;;95.95;51.67;;;9.20;99.90;;;;;;4650671;30;20189;-79
2023/02/16 10:43:55;;;;;;;92.88;51.33;;;9.20;99.90;;;;;;4652232;30;20623;-80
2023/02/16 10:46:25;;;;;;;89.88;50.22;;;9.20;99.90;;;;;;4654497;30;20194;-74
2023/02/16 10:48:55;;;;;;;98.18;51.05;;;9.20;99.90;;;;;;4651642;30;20197;-78
2023/02/16 10:51:26;;;;;;;95.25;51.65;;;9.20;99.90;;;;;;4650699;30;20244;-79
2023/02/16 10:53:59;;;;;;;99.03;53.65;;;9.20;99.90;;;;;;4649150;30;20287;-76
2023/02/16 10:56:51;;;;;;;105.72;53.80;;;9.20;99.90;;;;;;4648661;30;20252;-78
2023/02/16 10:59:25;;;;;;;104.40;52.83;;;9.30;99.90;;;;;;4649979;30;20186;-75
2023/02/16 11:01:58;;;;;;;100.82;53.28;;;9.20;99.90;;;;;;4652203;30;20201;-80
2023/02/16 11:04:36;;;;;;;107.10;53.47;;;9.30;99.90;;;;;;4642431;30;20198;-77
2023/02/16 11:07:14;;;;;;;96.22;51.28;;;9.30;99.90;;;;;;4653320;30;20189;-79
2023/02/16 11:09:42;;;;;;;111.32;54.83;;;9.30;99.90;;;;;;4625584;30;21160;-75
2023/02/16 11:12:31;;;;;;;115.75;55.95;;;9.30;99.90;;;;;;4630601;30;21515;-74
2023/02/16 11:15:03;;;;;;;107.07;54.00;;;9.30;99.90;;;;;;4656014;30;20299;-77
2023/02/16 11:17:31;;;;;;;108.03;54.70;;;9.40;99.90;;;;;;4655298;30;20562;-78
2023/02/16 11:20:04;;;;;;;105.13;54.50;;;9.40;99.90;;;;;;4655514;30;20190;-75
2023/02/16 11:22:36;;;;;;;102.40;54.95;;;9.40;99.90;;;;;;4640219;30;20206;-78
2023/02/16 11:25:18;;;;;;;110.03;53.92;;;9.30;99.90;;;;;;4654192;30;20308;-80
2023/02/16 11:27:56;;;;;;;102.35;52.83;;;9.30;99.90;;;;;;4655794;30;20670;-80
2023/02/16 11:30:40;;;;;;;112.13;55.70;;;9.30;99.90;;;;;;4640208;30;20197;-77
2023/02/16 11:33:22;;;;;;;107.75;54.55;;;9.40;99.90;;;;;;4654434;30;20296;-74
2023/02/16 11:35:48;;;;;;;104.90;52.63;;;9.40;99.90;;;;;;4653723;30;20203;-75
2023/02/16 11:38:35;;;;;;;107.85;55.47;;;9.40;99.90;;;;;;4653014;30;20197;-76
2023/02/16 11:41:04;;;;;;;109.47;55.17;;;9.40;99.90;;;;;;4654563;30;20673;-77
2023/02/16 11:43:37;;;;;;;106.75;56.00;;;9.40;99.90;;;;;;4655049;30;20197;-73
2023/02/16 11:46:08;;;;;;;102.00;54.38;;;9.50;99.90;;;;;;4658365;30;20648;-80
2023/02/16 11:48:35;;;;;;;99.97;53.38;;;9.40;99.90;;;;;;4655672;30;20639;-77
2023/02/16 11:51:06;;;;;;;106.85;55.13;;;9.40;99.90;;;;;;4655800;30;20288;-73
2023/02/16 11:53:34;;;;;;;110.50;54.88;;;9.50;99.90;;;;;;4656497;30;20248;-76
2023/02/16 11:56:12;;;;;;;104.78;54.78;;;9.50;99.90;;;;;;4655086;30;20228;-79
2023/02/16 11:58:39;;;;;;;114.15;55.42;;;9.50;99.90;;;;;;4653775;30;20193;-74
2023/02/16 12:01:27;;;;;;;109.07;55.53;;;9.60;99.90;;;;;;4633299;30;20200;-79
2023/02/16 12:04:14;;;;;;;115.38;55.85;;;9.60;99.90;;;;;;4631747;30;20189;-77
2023/02/16 12:07:23;;;;;;;112.10;54.95;;;9.60;99.90;;;;;;4649557;30;20298;-76
2023/02/16 12:10:03;;;;;;;114.85;55.50;;;9.60;99.90;;;;;;4643499;30;20218;-77
2023/02/16 12:13:01;;;;;;;113.93;57.90;;;9.60;99.90;;;;;;4635368;30;20225;-76
2023/02/16 12:16:12;;;;;;;107.20;54.83;;;9.60;99.90;;;;;;4654766;30;20231;-79
2023/02/16 12:19:05;;;;;;;109.60;56.35;;;9.60;99.90;;;;;;4653574;30;20201;-80
2023/02/16 12:21:36;;;;;;;110.38;54.30;;;9.60;99.90;;;;;;4654616;30;20424;-79
2023/02/16 12:24:21;;;;;;;107.53;55.38;;;9.60;99.90;;;;;;4654501;30;20701;-77
2023/02/16 12:27:08;;;;;;;113.20;57.30;;;9.70;99.90;;;;;;4654778;30;20205;-76
2023/02/16 12:29:37;;;;;;;109.65;55.70;;;9.70;99.90;;;;;;4654249;30;20204;-76
2023/02/16 12:32:03;;;;;;;116.55;55.05;;;9.80;99.90;;;;;;4654407;30;20283;-80
2023/02/16 12:34:37;;;;;;;99.07;52.80;;;9.90;99.90;;;;;;4654383;30;20264;-78
2023/02/16 12:37:25;;;;;;;102.00;54.15;;;10.10;99.90;;;;;;4653341;30;20197;-77
2023/02/16 12:40:18;;;;;;;102.78;53.80;;;10.30;99.90;;;;;;4653180;30;20210;-74
2023/02/16 12:43:08;;;;;;;105.32;53.13;;;10.40;99.90;;;;;;4653486;30;20201;-78
2023/02/16 12:45:39;;;;;;;91.15;51.35;;;10.60;99.90;;;;;;4653915;30;20193;-75
2023/02/16 12:48:17;;;;;;;94.35;51.50;;;10.80;99.90;;;;;;4653005;30;20229;-74
2023/02/16 12:50:44;;;;;;;97.45;51.17;;;10.90;99.90;;;;;;4654441;30;20222;-76
2023/02/16 12:53:28;;;;;;;86.57;48.83;;;11.00;99.90;;;;;;4653620;30;20231;-76
2023/02/16 12:55:57;;;;;;;91.65;48.92;;;11.10;99.90;;;;;;4653711;30;20189;-81
2023/02/16 12:58:34;;;;;;;90.78;47.95;;;11.10;99.90;;;;;;4652146;30;20197;-77
2023/02/16 13:01:11;;;;;;;87.57;46.78;;;11.20;99.90;;;;;;4638175;30;20194;-77
2023/02/16 13:03:43;;;;;;;82.78;44.92;;;11.30;99.90;;;;;;4654615;30;21852;-78
2023/02/16 13:06:36;;;;;;;85.60;45.15;;;11.40;99.90;;;;;;4651699;30;20659;-78
2023/02/16 13:09:27;;;;;;;85.63;47.42;;;11.40;99.90;;;;;;4653252;30;20264;-77
2023/02/16 13:12:00;;;;;;;77.68;45.20;;;11.50;99.90;;;;;;4652485;30;20670;-75
2023/02/16 13:14:32;;;;;;;79.13;44.72;;;11.50;99.90;;;;;;4616639;30;20236;-82
2023/02/16 13:17:02;;;;;;;76.82;43.17;;;11.50;99.90;;;;;;4654323;30;20250;-75
2023/02/16 13:19:29;;;;;;;70.55;42.05;;;11.50;99.90;;;;;;4652340;30;21160;-76
2023/02/16 13:22:16;;;;;;;69.75;41.40;;;11.50;99.90;;;;;;4653932;30;20292;-76
2023/02/16 13:25:20;;;;;;;69.38;39.92;;;11.50;99.90;;;;;;4653851;30;20462;-80
2023/02/16 13:28:14;;;;;;;69.40;39.17;;;11.50;99.90;;;;;;4645336;30;20200;-75
2023/02/16 13:31:04;;;;;;;68.18;38.47;;;11.50;99.90;;;;;;4634580;30;20204;-75
2023/02/16 13:33:39;;;;;;;68.13;36.97;;;11.50;99.90;;;;;;4653792;30;20204;-75
2023/02/16 13:36:17;;;;;;;68.15;39.15;;;11.50;99.90;;;;;;4654094;30;20841;-75
2023/02/16 13:39:09;;;;;;;66.97;40.63;;;11.60;99.90;;;;;;4654328;30;20227;-78
2023/02/16 13:41:44;;;;;;;63.28;38.00;;;11.60;99.90;;;;;;4629830;30;20205;-79